sensor_id;sensor_type;location;lat;lon;timestamp;temperature;humidity
28947;DHT22;16052;50.930;5.326;2023-02-19T00:01:35;10.90;99.90
28947;DHT22;16052;50.930;5.326;2023-02-19T00:04:08;10.90;99.90
28947;DHT22;16052;50.930;5.326;2023-02-19T00:06:35;10.90;99.90
28947;DHT22;16052;50.930;5.326;2023-02-19T00:09:01;11.00;99.90
28947;DHT22;16052;50.930;5.326;2023-02-19T00:11:30;11.00;99.90
28947;DHT22;16052;50.930;5.326;2023-02-19T00:13:57;11.00;99.90
28947;DHT22;16052;50.930;5.326;2023-02-19T00:16:27;10.90;99.90
28947;DHT22;16052;50.930;5.326;2023-02-19T00:18:55;11.00;99.90
28947;DHT22;16052;50.930;5.326;2023-02-19T00:21:21;11.00;99.90
28947;DHT22;16052;50.930;5.326;2023-02-19T00:23:54;11.00;99.90
28947;DHT22;16052;50.930;5.326;2023-02-19T00:26:21;11.00;99.90
28947;DHT22;16052;50.930;5.326;2023-02-19T00:28:48;10.90;99.90
28947;DHT22;16052;50.930;5.326;2023-02-19T00:31:19;10.90;99.90
28947;DHT22;16052;50.930;5.326;2023-02-19T00:33:46;10.80;99.90
28947;DHT22;16052;50.930;5.326;2023-02-19T00:36:13;10.90;99.90
28947;DHT22;16052;50.930;5.326;2023-02-19T00:38:40;10.80;99.90
28947;DHT22;16052;50.930;5.326;2023-02-19T00:41:07;10.80;99.90
28947;DHT22;16052;50.930;5.326;2023-02-19T00:43:52;10.80;99.90
28947;DHT22;16052;50.930;5.326;2023-02-19T00:48:48;10.80;99.90
28947;DHT22;16052;50.930;5.326;2023-02-19T00:51:14;10.70;99.90
28947;DHT22;16052;50.930;5.326;2023-02-19T00:53:40;10.80;99.90
28947;DHT22;16052;50.930;5.326;2023-02-19T00:56:06;10.80;99.90
28947;DHT22;16052;50.930;5.326;2023-02-19T00:58:32;10.80;99.90
28947;DHT22;16052;50.930;5.326;2023-02-19T01:00:58;10.80;99.90
28947;DHT22;16052;50.930;5.326;2023-02-19T01:03:24;10.90;99.90
28947;DHT22;16052;50.930;5.326;2023-02-19T01:05:51;10.80;99.90
28947;DHT22;16052;50.930;5.326;2023-02-19T01:08:17;10.80;99.90
28947;DHT22;16052;50.930;5.326;2023-02-19T01:10:43;10.80;99.90
28947;DHT22;16052;50.930;5.326;2023-02-19T01:13:09;10.80;99.90
28947;DHT22;16052;50.930;5.326;2023-02-19T01:15:35;10.90;99.90
28947;DHT22;16052;50.930;5.326;2023-02-19T01:18:00;10.80;99.90
28947;DHT22;16052;50.930;5.326;2023-02-19T01:20:26;10.80;99.90
28947;DHT22;16052;50.930;5.326;2023-02-19T01:22:52;10.80;99.90
28947;DHT22;16052;50.930;5.326;2023-02-19T01:25:18;10.80;99.90
28947;DHT22;16052;50.930;5.326;2023-02-19T01:27:43;10.80;99.90
28947;DHT22;16052;50.930;5.326;2023-02-19T01:30:12;10.90;99.90
28947;DHT22;16052;50.930;5.326;2023-02-19T01:32:37;10.80;99.90
28947;DHT22;16052;50.930;5.326;2023-02-19T01:35:04;10.80;99.90
28947;DHT22;16052;50.930;5.326;2023-02-19T01:37:30;10.80;99.90
28947;DHT22;16052;50.930;5.326;2023-02-19T01:39:56;10.80;99.90
28947;DHT22;16052;50.930;5.326;2023-02-19T01:42:21;10.80;99.90
28947;DHT22;16052;50.930;5.326;2023-02-19T01:47:16;10.80;99.90
28947;DHT22;16052;50.930;5.326;2023-02-19T01:49:50;10.80;99.90
28947;DHT22;16052;50.930;5.326;2023-02-19T01:52:29;10.80;99.90
28947;DHT22;16052;50.930;5.326;2023-02-19T01:55:01;10.80;99.90
28947;DHT22;16052;50.930;5.326;2023-02-19T01:57:32;10.90;99.90
28947;DHT22;16052;50.930;5.326;2023-02-19T02:00:04;10.80;99.90
28947;DHT22;16052;50.930;5.326;2023-02-19T02:02:30;10.80;99.90
28947;DHT22;16052;50.930;5.326;2023-02-19T02:04:57;10.80;99.90
28947;DHT22;16052;50.930;5.326;2023-02-19T02:07:24;10.80;99.90
28947;DHT22;16052;50.930;5.326;2023-02-19T02:10:10;10.80;99.90
28947;DHT22;16052;50.930;5.326;2023-02-19T02:12:49;10.90;99.90
28947;DHT22;16052;50.930;5.326;2023-02-19T02:15:16;10.80;99.90
28947;DHT22;16052;50.930;5.326;2023-02-19T02:17:54;10.90;99.90
28947;DHT22;16052;50.930;5.326;2023-02-19T02:31:50;10.80;99.90
28947;DHT22;16052;50.930;5.326;2023-02-19T02:34:23;10.80;99.90
28947;DHT22;16052;50.930;5.326;2023-02-19T02:36:52;10.90;99.90
28947;DHT22;16052;50.930;5.326;2023-02-19T02:39:19;10.90;99.90
28947;DHT22;16052;50.930;5.326;2023-02-19T02:41:55;10.90;99.90
28947;DHT22;16052;50.930;5.326;2023-02-19T02:44:41;10.90;99.90
28947;DHT22;16052;50.930;5.326;2023-02-19T02:47:29;10.90;99.90
28947;DHT22;16052;50.930;5.326;2023-02-19T02:50:34;10.90;99.90
28947;DHT22;16052;50.930;5.326;2023-02-19T02:53:02;10.80;99.90
28947;DHT22;16052;50.930;5.326;2023-02-19T02:55:50;10.80;99.90
28947;DHT22;16052;50.930;5.326;2023-02-19T02:58:18;10.90;99.90
28947;DHT22;16052;50.930;5.326;2023-02-19T03:00:46;10.80;99.90
28947;DHT22;16052;50.930;5.326;2023-02-19T03:03:34;10.90;99.90
28947;DHT22;16052;50.930;5.326;2023-02-19T03:06:04;10.80;99.90
28947;DHT22;16052;50.930;5.326;2023-02-19T03:08:37;10.80;99.90
28947;DHT22;16052;50.930;5.326;2023-02-19T03:11:07;10.80;99.90
28947;DHT22;16052;50.930;5.326;2023-02-19T03:14:13;10.90;99.90
28947;DHT22;16052;50.930;5.326;2023-02-19T03:17:04;10.80;99.90
28947;DHT22;16052;50.930;5.326;2023-02-19T03:19:53;10.80;99.90
28947;DHT22;16052;50.930;5.326;2023-02-19T03:22:30;10.80;99.90
28947;DHT22;16052;50.930;5.326;2023-02-19T03:25:08;10.80;99.90
28947;DHT22;16052;50.930;5.326;2023-02-19T03:27:55;10.80;99.90
28947;DHT22;16052;50.930;5.326;2023-02-19T03:30:24;10.70;99.90
28947;DHT22;16052;50.930;5.326;2023-02-19T03:33:06;10.70;99.90
28947;DHT22;16052;50.930;5.326;2023-02-19T03:35:58;10.80;99.90
28947;DHT22;16052;50.930;5.326;2023-02-19T03:38:30;10.80;99.90
28947;DHT22;16052;50.930;5.326;2023-02-19T03:41:32;10.70;99.90
28947;DHT22;16052;50.930;5.326;2023-02-19T03:44:31;10.80;99.90
28947;DHT22;16052;50.930;5.326;2023-02-19T03:49:47;10.70;99.90
28947;DHT22;16052;50.930;5.326;2023-02-19T03:58:04;10.60;99.90
28947;DHT22;16052;50.930;5.326;2023-02-19T04:01:03;10.70;99.90
28947;DHT22;16052;50.930;5.326;2023-02-19T04:03:43;10.70;99.90
28947;DHT22;16052;50.930;5.326;2023-02-19T04:06:14;10.80;99.90
28947;DHT22;16052;50.930;5.326;2023-02-19T04:08:44;10.80;99.90
28947;DHT22;16052;50.930;5.326;2023-02-19T04:11:12;10.80;99.90
28947;DHT22;16052;50.930;5.326;2023-02-19T04:16:27;10.70;99.90
28947;DHT22;16052;50.930;5.326;2023-02-19T04:19:10;10.60;99.90
28947;DHT22;16052;50.930;5.326;2023-02-19T04:21:37;10.70;99.90
28947;DHT22;16052;50.930;5.326;2023-02-19T04:24:08;10.70;99.90
28947;DHT22;16052;50.930;5.326;2023-02-19T04:26:34;10.60;99.90
28947;DHT22;16052;50.930;5.326;2023-02-19T04:29:00;10.60;99.90
28947;DHT22;16052;50.930;5.326;2023-02-19T04:31:28;10.70;99.90
28947;DHT22;16052;50.930;5.326;2023-02-19T04:33:55;10.70;99.90
28947;DHT22;16052;50.930;5.326;2023-02-19T04:36:21;10.80;99.90
28947;DHT22;16052;50.930;5.326;2023-02-19T04:38:46;10.70;99.90
28947;DHT22;16052;50.930;5.326;2023-02-19T04:41:12;10.70;99.90
28947;DHT22;16052;50.930;5.326;2023-02-19T04:43:39;10.70;99.90
28947;DHT22;16052;50.930;5.326;2023-02-19T04:46:04;10.70;99.90
28947;DHT22;16052;50.930;5.326;2023-02-19T04:48:30;10.70;99.90
28947;DHT22;16052;50.930;5.326;2023-02-19T04:50:55;10.60;99.90
28947;DHT22;16052;50.930;5.326;2023-02-19T04:53:21;10.60;99.90
28947;DHT22;16052;50.930;5.326;2023-02-19T04:55:47;10.60;99.90
28947;DHT22;16052;50.930;5.326;2023-02-19T04:58:14;10.60;99.90
28947;DHT22;16052;50.930;5.326;2023-02-19T05:00:39;10.70;99.90
28947;DHT22;16052;50.930;5.326;2023-02-19T05:03:05;10.60;99.90
28947;DHT22;16052;50.930;5.326;2023-02-19T05:05:30;10.60;99.90
28947;DHT22;16052;50.930;5.326;2023-02-19T05:07:56;10.60;99.90
28947;DHT22;16052;50.930;5.326;2023-02-19T05:10:22;10.60;99.90
28947;DHT22;16052;50.930;5.326;2023-02-19T05:12:47;10.60;99.90
28947;DHT22;16052;50.930;5.326;2023-02-19T05:15:13;10.60;99.90
28947;DHT22;16052;50.930;5.326;2023-02-19T05:17:38;10.60;99.90
28947;DHT22;16052;50.930;5.326;2023-02-19T05:20:04;10.50;99.90
28947;DHT22;16052;50.930;5.326;2023-02-19T05:22:30;10.60;99.90
28947;DHT22;16052;50.930;5.326;2023-02-19T05:24:57;10.70;99.90
28947;DHT22;16052;50.930;5.326;2023-02-19T05:27:23;10.60;99.90
28947;DHT22;16052;50.930;5.326;2023-02-19T05:29:49;10.50;99.90
28947;DHT22;16052;50.930;5.326;2023-02-19T05:32:14;10.50;99.90
28947;DHT22;16052;50.930;5.326;2023-02-19T05:34:40;10.60;99.90
28947;DHT22;16052;50.930;5.326;2023-02-19T05:37:06;10.60;99.90
28947;DHT22;16052;50.930;5.326;2023-02-19T05:39:31;10.60;99.90
28947;DHT22;16052;50.930;5.326;2023-02-19T05:41:57;10.60;99.90
28947;DHT22;16052;50.930;5.326;2023-02-19T05:44:22;10.60;99.90
28947;DHT22;16052;50.930;5.326;2023-02-19T05:46:48;10.50;99.90
28947;DHT22;16052;50.930;5.326;2023-02-19T05:49:14;10.60;99.90
28947;DHT22;16052;50.930;5.326;2023-02-19T05:51:39;10.60;99.90
28947;DHT22;16052;50.930;5.326;2023-02-19T05:54:05;10.50;99.90
28947;DHT22;16052;50.930;5.326;2023-02-19T05:56:39;10.50;99.90
28947;DHT22;16052;50.930;5.326;2023-02-19T06:01:33;10.60;99.90
28947;DHT22;16052;50.930;5.326;2023-02-19T06:03:59;10.60;99.90
28947;DHT22;16052;50.930;5.326;2023-02-19T06:06:26;10.50;99.90
28947;DHT22;16052;50.930;5.326;2023-02-19T06:08:51;10.60;99.90
28947;DHT22;16052;50.930;5.326;2023-02-19T06:11:17;10.60;99.90
28947;DHT22;16052;50.930;5.326;2023-02-19T06:13:43;10.50;99.90
28947;DHT22;16052;50.930;5.326;2023-02-19T06:16:09;10.50;99.90
28947;DHT22;16052;50.930;5.326;2023-02-19T06:18:35;10.50;99.90
28947;DHT22;16052;50.930;5.326;2023-02-19T06:21:03;10.50;99.90
28947;DHT22;16052;50.930;5.326;2023-02-19T06:23:30;10.50;99.90
28947;DHT22;16052;50.930;5.326;2023-02-19T06:26:17;10.50;99.90
28947;DHT22;16052;50.930;5.326;2023-02-19T06:28:43;10.40;99.90
28947;DHT22;16052;50.930;5.326;2023-02-19T06:31:10;10.50;99.90
28947;DHT22;16052;50.930;5.326;2023-02-19T06:33:37;10.50;99.90
28947;DHT22;16052;50.930;5.326;2023-02-19T06:36:11;10.50;99.90
28947;DHT22;16052;50.930;5.326;2023-02-19T06:38:38;10.50;99.90
28947;DHT22;16052;50.930;5.326;2023-02-19T06:41:05;10.40;99.90
28947;DHT22;16052;50.930;5.326;2023-02-19T06:43:33;10.40;99.90
28947;DHT22;16052;50.930;5.326;2023-02-19T06:46:00;10.40;99.90
28947;DHT22;16052;50.930;5.326;2023-02-19T06:48:27;10.30;99.90
28947;DHT22;16052;50.930;5.326;2023-02-19T06:50:53;10.40;99.90
28947;DHT22;16052;50.930;5.326;2023-02-19T06:53:19;10.40;99.90
28947;DHT22;16052;50.930;5.326;2023-02-19T06:56:02;10.40;99.90
28947;DHT22;16052;50.930;5.326;2023-02-19T06:58:29;10.40;99.90
28947;DHT22;16052;50.930;5.326;2023-02-19T07:00:55;10.40;99.90
28947;DHT22;16052;50.930;5.326;2023-02-19T07:03:20;10.40;99.90
28947;DHT22;16052;50.930;5.326;2023-02-19T07:05:46;10.40;99.90
28947;DHT22;16052;50.930;5.326;2023-02-19T07:08:12;10.40;99.90
28947;DHT22;16052;50.930;5.326;2023-02-19T07:10:38;10.40;99.90
28947;DHT22;16052;50.930;5.326;2023-02-19T07:13:04;10.40;99.90
28947;DHT22;16052;50.930;5.326;2023-02-19T07:15:29;10.40;99.90
28947;DHT22;16052;50.930;5.326;2023-02-19T07:17:56;10.40;99.90
28947;DHT22;16052;50.930;5.326;2023-02-19T07:20:22;10.50;99.90
28947;DHT22;16052;50.930;5.326;2023-02-19T07:22:49;10.50;99.90
28947;DHT22;16052;50.930;5.326;2023-02-19T07:25:14;10.50;99.90
28947;DHT22;16052;50.930;5.326;2023-02-19T07:27:40;10.50;99.90
28947;DHT22;16052;50.930;5.326;2023-02-19T07:30:06;10.50;99.90
28947;DHT22;16052;50.930;5.326;2023-02-19T07:32:32;10.50;99.90
28947;DHT22;16052;50.930;5.326;2023-02-19T07:34:57;10.50;99.90
28947;DHT22;16052;50.930;5.326;2023-02-19T07:37:24;10.50;99.90
28947;DHT22;16052;50.930;5.326;2023-02-19T07:39:49;10.50;99.90
28947;DHT22;16052;50.930;5.326;2023-02-19T07:42:15;10.60;99.90
28947;DHT22;16052;50.930;5.326;2023-02-19T07:44:40;10.60;99.90
28947;DHT22;16052;50.930;5.326;2023-02-19T07:47:06;10.50;99.90
28947;DHT22;16052;50.930;5.326;2023-02-19T07:49:33;10.50;99.90
28947;DHT22;16052;50.930;5.326;2023-02-19T07:51:58;10.50;99.90
28947;DHT22;16052;50.930;5.326;2023-02-19T07:54:24;10.50;99.90
28947;DHT22;16052;50.930;5.326;2023-02-19T07:56:49;10.50;99.90
28947;DHT22;16052;50.930;5.326;2023-02-19T07:59:15;10.50;99.90
28947;DHT22;16052;50.930;5.326;2023-02-19T08:01:44;10.50;99.90
28947;DHT22;16052;50.930;5.326;2023-02-19T08:04:28;10.60;99.90
28947;DHT22;16052;50.930;5.326;2023-02-19T08:06:56;10.50;99.90
28947;DHT22;16052;50.930;5.326;2023-02-19T08:09:21;10.60;99.90
28947;DHT22;16052;50.930;5.326;2023-02-19T08:11:47;10.50;99.90
28947;DHT22;16052;50.930;5.326;2023-02-19T08:14:31;10.50;99.90
28947;DHT22;16052;50.930;5.326;2023-02-19T08:16:57;10.50;99.90
28947;DHT22;16052;50.930;5.326;2023-02-19T08:19:22;10.50;99.90
28947;DHT22;16052;50.930;5.326;2023-02-19T08:21:48;10.40;99.90
28947;DHT22;16052;50.930;5.326;2023-02-19T08:24:15;10.30;99.90
28947;DHT22;16052;50.930;5.326;2023-02-19T08:26:40;10.30;99.90
28947;DHT22;16052;50.930;5.326;2023-02-19T08:29:06;10.20;99.90
28947;DHT22;16052;50.930;5.326;2023-02-19T08:31:32;10.20;99.90
28947;DHT22;16052;50.930;5.326;2023-02-19T08:33:58;10.20;99.90
28947;DHT22;16052;50.930;5.326;2023-02-19T08:36:24;10.20;99.90
28947;DHT22;16052;50.930;5.326;2023-02-19T08:38:50;10.20;99.90
28947;DHT22;16052;50.930;5.326;2023-02-19T08:41:16;10.20;99.90
28947;DHT22;16052;50.930;5.326;2023-02-19T08:43:42;10.20;99.90
28947;DHT22;16052;50.930;5.326;2023-02-19T08:46:09;10.40;99.90
28947;DHT22;16052;50.930;5.326;2023-02-19T08:48:35;10.40;99.90
28947;DHT22;16052;50.930;5.326;2023-02-19T08:51:04;10.40;99.90
28947;DHT22;16052;50.930;5.326;2023-02-19T08:53:31;10.30;99.90
28947;DHT22;16052;50.930;5.326;2023-02-19T08:55:57;10.40;99.90
28947;DHT22;16052;50.930;5.326;2023-02-19T08:58:23;10.30;99.90
28947;DHT22;16052;50.930;5.326;2023-02-19T09:00:50;10.30;99.90
28947;DHT22;16052;50.930;5.326;2023-02-19T09:03:16;10.10;99.90
28947;DHT22;16052;50.930;5.326;2023-02-19T09:05:42;10.00;99.90
28947;DHT22;16052;50.930;5.326;2023-02-19T09:08:08;9.90;99.90
28947;DHT22;16052;50.930;5.326;2023-02-19T09:10:34;9.90;99.90
28947;DHT22;16052;50.930;5.326;2023-02-19T09:12:59;9.80;99.90
28947;DHT22;16052;50.930;5.326;2023-02-19T09:15:26;9.80;99.90
28947;DHT22;16052;50.930;5.326;2023-02-19T09:17:54;9.80;99.90
28947;DHT22;16052;50.930;5.326;2023-02-19T09:20:19;9.90;99.90
28947;DHT22;16052;50.930;5.326;2023-02-19T09:22:45;10.00;99.90
28947;DHT22;16052;50.930;5.326;2023-02-19T09:25:11;10.10;99.90
28947;DHT22;16052;50.930;5.326;2023-02-19T09:27:36;10.10;99.90
28947;DHT22;16052;50.930;5.326;2023-02-19T09:30:02;10.10;99.90
28947;DHT22;16052;50.930;5.326;2023-02-19T09:32:33;10.10;99.90
28947;DHT22;16052;50.930;5.326;2023-02-19T09:34:58;10.00;99.90
28947;DHT22;16052;50.930;5.326;2023-02-19T09:37:26;10.00;99.90
28947;DHT22;16052;50.930;5.326;2023-02-19T09:39:52;10.10;99.90
28947;DHT22;16052;50.930;5.326;2023-02-19T09:42:26;10.10;99.90
28947;DHT22;16052;50.930;5.326;2023-02-19T09:44:55;10.10;99.90
28947;DHT22;16052;50.930;5.326;2023-02-19T09:47:24;10.10;99.90
28947;DHT22;16052;50.930;5.326;2023-02-19T09:49:55;10.00;99.90
28947;DHT22;16052;50.930;5.326;2023-02-19T09:52:42;10.00;99.90
28947;DHT22;16052;50.930;5.326;2023-02-19T09:55:29;10.10;99.90
28947;DHT22;16052;50.930;5.326;2023-02-19T09:57:57;10.20;99.90
28947;DHT22;16052;50.930;5.326;2023-02-19T10:00:25;10.20;99.90
28947;DHT22;16052;50.930;5.326;2023-02-19T10:03:04;10.30;99.90
28947;DHT22;16052;50.930;5.326;2023-02-19T10:05:31;10.30;99.90
28947;DHT22;16052;50.930;5.326;2023-02-19T10:07:57;10.40;99.90
28947;DHT22;16052;50.930;5.326;2023-02-19T10:10:31;10.40;99.90
28947;DHT22;16052;50.930;5.326;2023-02-19T10:13:24;10.40;99.90
28947;DHT22;16052;50.930;5.326;2023-02-19T10:15:56;10.20;99.90
28947;DHT22;16052;50.930;5.326;2023-02-19T10:18:28;10.00;99.90
28947;DHT22;16052;50.930;5.326;2023-02-19T10:20:56;9.90;99.90
28947;DHT22;16052;50.930;5.326;2023-02-19T10:23:23;9.80;99.90
28947;DHT22;16052;50.930;5.326;2023-02-19T10:25:55;9.90;99.90
28947;DHT22;16052;50.930;5.326;2023-02-19T10:28:29;9.90;99.90
28947;DHT22;16052;50.930;5.326;2023-02-19T10:31:00;9.90;99.90
28947;DHT22;16052;50.930;5.326;2023-02-19T10:33:29;9.80;99.90
28947;DHT22;16052;50.930;5.326;2023-02-19T10:36:03;9.90;99.90
28947;DHT22;16052;50.930;5.326;2023-02-19T10:38:38;9.90;99.90
28947;DHT22;16052;50.930;5.326;2023-02-19T10:41:18;10.00;99.90
28947;DHT22;16052;50.930;5.326;2023-02-19T10:44:05;10.00;99.90
28947;DHT22;16052;50.930;5.326;2023-02-19T10:46:42;10.10;99.90
28947;DHT22;16052;50.930;5.326;2023-02-19T10:49:38;10.10;99.90
28947;DHT22;16052;50.930;5.326;2023-02-19T10:52:28;10.30;99.90
28947;DHT22;16052;50.930;5.326;2023-02-19T10:55:13;10.30;99.90
28947;DHT22;16052;50.930;5.326;2023-02-19T10:57:42;10.30;99.90
28947;DHT22;16052;50.930;5.326;2023-02-19T11:02:44;10.20;99.90
28947;DHT22;16052;50.930;5.326;2023-02-19T11:07:55;10.20;99.90
28947;DHT22;16052;50.930;5.326;2023-02-19T11:10:29;10.30;99.90
28947;DHT22;16052;50.930;5.326;2023-02-19T11:13:03;10.30;99.90
28947;DHT22;16052;50.930;5.326;2023-02-19T11:15:35;10.30;99.90
28947;DHT22;16052;50.930;5.326;2023-02-19T11:20:58;10.40;99.90
28947;DHT22;16052;50.930;5.326;2023-02-19T11:23:44;10.50;99.90
28947;DHT22;16052;50.930;5.326;2023-02-19T11:26:21;10.50;99.90
28947;DHT22;16052;50.930;5.326;2023-02-19T11:28:58;10.50;99.90
28947;DHT22;16052;50.930;5.326;2023-02-19T11:31:27;10.50;99.90
28947;DHT22;16052;50.930;5.326;2023-02-19T11:33:58;10.30;99.90
28947;DHT22;16052;50.930;5.326;2023-02-19T11:36:34;10.30;99.90
28947;DHT22;16052;50.930;5.326;2023-02-19T11:53:30;10.40;99.90
28947;DHT22;16052;50.930;5.326;2023-02-19T11:55:41;10.40;99.90
28947;DHT22;16052;50.930;5.326;2023-02-19T11:58:50;10.40;99.90
28947;DHT22;16052;50.930;5.326;2023-02-19T12:10:43;10.50;99.90
28947;DHT22;16052;50.930;5.326;2023-02-19T12:18:37;10.60;99.90
28947;DHT22;16052;50.930;5.326;2023-02-19T12:41:25;10.70;99.90
28947;DHT22;16052;50.930;5.326;2023-02-19T12:44:02;10.80;99.90
28947;DHT22;16052;50.930;5.326;2023-02-19T12:46:41;10.80;99.90
28947;DHT22;16052;50.930;5.326;2023-02-19T12:49:18;10.70;99.90
28947;DHT22;16052;50.930;5.326;2023-02-19T12:51:48;10.80;99.90
28947;DHT22;16052;50.930;5.326;2023-02-19T12:56:52;10.80;99.90
28947;DHT22;16052;50.930;5.326;2023-02-19T13:04:53;10.80;99.90
28947;DHT22;16052;50.930;5.326;2023-02-19T13:07:44;10.80;99.90
28947;DHT22;16052;50.930;5.326;2023-02-19T13:10:27;10.80;99.90
28947;DHT22;16052;50.930;5.326;2023-02-19T13:12:58;10.80;99.90
28947;DHT22;16052;50.930;5.326;2023-02-19T13:18:19;10.70;99.90
28947;DHT22;16052;50.930;5.326;2023-02-19T13:20:47;10.80;99.90
28947;DHT22;16052;50.930;5.326;2023-02-19T13:23:19;10.80;99.90
28947;DHT22;16052;50.930;5.326;2023-02-19T13:35:09;10.70;99.90
28947;DHT22;16052;50.930;5.326;2023-02-19T13:37:38;10.60;99.90
28947;DHT22;16052;50.930;5.326;2023-02-19T13:42:57;10.60;99.90
28947;DHT22;16052;50.930;5.326;2023-02-19T13:50:31;10.60;99.90
28947;DHT22;16052;50.930;5.326;2023-02-19T13:53:01;10.50;99.90
28947;DHT22;16052;50.930;5.326;2023-02-19T13:56:51;10.50;99.90
28947;DHT22;16052;50.930;5.326;2023-02-19T13:59:20;10.50;99.90
28947;DHT22;16052;50.930;5.326;2023-02-19T14:14:47;10.20;99.90
28947;DHT22;16052;50.930;5.326;2023-02-19T14:17:38;10.10;99.90
28947;DHT22;16052;50.930;5.326;2023-02-19T14:20:38;10.10;99.90
28947;DHT22;16052;50.930;5.326;2023-02-19T14:23:19;10.00;99.90
28947;DHT22;16052;50.930;5.326;2023-02-19T14:25:52;10.00;99.90
28947;DHT22;16052;50.930;5.326;2023-02-19T14:28:29;10.10;99.90
28947;DHT22;16052;50.930;5.326;2023-02-19T14:31:25;10.10;99.90
28947;DHT22;16052;50.930;5.326;2023-02-19T14:34:00;10.00;99.90
28947;DHT22;16052;50.930;5.326;2023-02-19T14:36:54;10.00;99.90
28947;DHT22;16052;50.930;5.326;2023-02-19T14:39:28;10.10;99.90
28947;DHT22;16052;50.930;5.326;2023-02-19T14:42:17;10.00;99.90
28947;DHT22;16052;50.930;5.326;2023-02-19T14:44:51;10.00;99.90
28947;DHT22;16052;50.930;5.326;2023-02-19T14:47:20;9.90;99.90
28947;DHT22;16052;50.930;5.326;2023-02-19T14:49:57;9.90;99.90
28947;DHT22;16052;50.930;5.326;2023-02-19T14:52:39;9.80;99.90
28947;DHT22;16052;50.930;5.326;2023-02-19T14:57:47;9.80;99.90
28947;DHT22;16052;50.930;5.326;2023-02-19T15:00:24;9.80;99.90
28947;DHT22;16052;50.930;5.326;2023-02-19T15:03:00;9.80;99.90
28947;DHT22;16052;50.930;5.326;2023-02-19T15:05:36;9.90;99.90
28947;DHT22;16052;50.930;5.326;2023-02-19T15:08:16;9.90;99.90
28947;DHT22;16052;50.930;5.326;2023-02-19T15:10:43;10.00;99.90
28947;DHT22;16052;50.930;5.326;2023-02-19T15:13:10;10.10;99.90
28947;DHT22;16052;50.930;5.326;2023-02-19T15:15:51;10.00;99.90
28947;DHT22;16052;50.930;5.326;2023-02-19T15:18:22;10.40;99.90
28947;DHT22;16052;50.930;5.326;2023-02-19T15:20:58;10.40;99.90
28947;DHT22;16052;50.930;5.326;2023-02-19T15:23:25;10.30;99.90
28947;DHT22;16052;50.930;5.326;2023-02-19T15:25:54;10.10;99.90
28947;DHT22;16052;50.930;5.326;2023-02-19T15:33:27;9.80;99.90
28947;DHT22;16052;50.930;5.326;2023-02-19T15:36:08;9.90;99.90
28947;DHT22;16052;50.930;5.326;2023-02-19T15:38:38;9.80;99.90
28947;DHT22;16052;50.930;5.326;2023-02-19T15:41:04;9.70;99.90
28947;DHT22;16052;50.930;5.326;2023-02-19T15:43:32;9.80;99.90
28947;DHT22;16052;50.930;5.326;2023-02-19T15:46:14;9.80;99.90
28947;DHT22;16052;50.930;5.326;2023-02-19T15:48:45;9.70;99.90
28947;DHT22;16052;50.930;5.326;2023-02-19T15:51:25;9.70;99.90
28947;DHT22;16052;50.930;5.326;2023-02-19T15:53:56;9.70;99.90
28947;DHT22;16052;50.930;5.326;2023-02-19T15:56:34;9.70;99.90
28947;DHT22;16052;50.930;5.326;2023-02-19T15:59:06;9.80;99.90
28947;DHT22;16052;50.930;5.326;2023-02-19T16:01:38;9.60;99.90
28947;DHT22;16052;50.930;5.326;2023-02-19T16:04:15;9.60;99.90
28947;DHT22;16052;50.930;5.326;2023-02-19T16:06:56;9.60;99.90
28947;DHT22;16052;50.930;5.326;2023-02-19T16:09:35;9.60;99.90
28947;DHT22;16052;50.930;5.326;2023-02-19T16:12:02;9.70;99.90
28947;DHT22;16052;50.930;5.326;2023-02-19T16:14:35;9.70;99.90
28947;DHT22;16052;50.930;5.326;2023-02-19T16:19:50;9.70;99.90
28947;DHT22;16052;50.930;5.326;2023-02-19T16:22:19;9.50;99.90
28947;DHT22;16052;50.930;5.326;2023-02-19T16:24:49;9.50;99.90
28947;DHT22;16052;50.930;5.326;2023-02-19T16:29:53;9.50;99.90
28947;DHT22;16052;50.930;5.326;2023-02-19T16:32:19;9.50;99.90
28947;DHT22;16052;50.930;5.326;2023-02-19T16:34:45;9.50;99.90
28947;DHT22;16052;50.930;5.326;2023-02-19T16:37:40;9.50;99.90
28947;DHT22;16052;50.930;5.326;2023-02-19T16:45:14;9.60;99.90
28947;DHT22;16052;50.930;5.326;2023-02-19T16:47:40;9.50;99.90
28947;DHT22;16052;50.930;5.326;2023-02-19T16:50:22;9.50;99.90
28947;DHT22;16052;50.930;5.326;2023-02-19T16:53:00;9.50;99.90
28947;DHT22;16052;50.930;5.326;2023-02-19T16:55:27;9.60;99.90
28947;DHT22;16052;50.930;5.326;2023-02-19T16:57:53;9.60;99.90
28947;DHT22;16052;50.930;5.326;2023-02-19T17:00:24;9.60;99.90
28947;DHT22;16052;50.930;5.326;2023-02-19T17:02:51;9.60;99.90
28947;DHT22;16052;50.930;5.326;2023-02-19T17:05:19;9.60;99.90
28947;DHT22;16052;50.930;5.326;2023-02-19T17:07:45;9.60;99.90
28947;DHT22;16052;50.930;5.326;2023-02-19T17:10:18;9.50;99.90
28947;DHT22;16052;50.930;5.326;2023-02-19T17:12:44;9.50;99.90
28947;DHT22;16052;50.930;5.326;2023-02-19T17:15:11;9.60;99.90
28947;DHT22;16052;50.930;5.326;2023-02-19T17:17:37;9.70;99.90
28947;DHT22;16052;50.930;5.326;2023-02-19T17:20:24;9.80;99.90
28947;DHT22;16052;50.930;5.326;2023-02-19T17:22:54;9.70;99.90
28947;DHT22;16052;50.930;5.326;2023-02-19T17:25:21;9.80;99.90
28947;DHT22;16052;50.930;5.326;2023-02-19T17:27:47;9.70;99.90
28947;DHT22;16052;50.930;5.326;2023-02-19T17:30:27;9.50;99.90
28947;DHT22;16052;50.930;5.326;2023-02-19T17:32:53;9.40;99.90
28947;DHT22;16052;50.930;5.326;2023-02-19T17:35:19;9.40;99.90
28947;DHT22;16052;50.930;5.326;2023-02-19T17:37:45;9.30;99.90
28947;DHT22;16052;50.930;5.326;2023-02-19T17:40:26;9.40;99.90
28947;DHT22;16052;50.930;5.326;2023-02-19T17:42:52;9.40;99.90
28947;DHT22;16052;50.930;5.326;2023-02-19T17:45:18;9.40;99.90
28947;DHT22;16052;50.930;5.326;2023-02-19T17:47:43;9.40;99.90
28947;DHT22;16052;50.930;5.326;2023-02-19T17:50:21;9.40;99.90
28947;DHT22;16052;50.930;5.326;2023-02-19T17:52:47;9.40;99.90
28947;DHT22;16052;50.930;5.326;2023-02-19T17:55:14;9.40;99.90
28947;DHT22;16052;50.930;5.326;2023-02-19T17:57:44;9.40;99.90
28947;DHT22;16052;50.930;5.326;2023-02-19T18:00:13;9.30;99.90
28947;DHT22;16052;50.930;5.326;2023-02-19T18:02:39;9.40;99.90
28947;DHT22;16052;50.930;5.326;2023-02-19T18:05:05;9.40;99.90
28947;DHT22;16052;50.930;5.326;2023-02-19T18:07:31;9.40;99.90
28947;DHT22;16052;50.930;5.326;2023-02-19T18:09:56;9.30;99.90
28947;DHT22;16052;50.930;5.326;2023-02-19T18:12:22;9.30;99.90
28947;DHT22;16052;50.930;5.326;2023-02-19T18:14:53;9.30;99.90
28947;DHT22;16052;50.930;5.326;2023-02-19T18:17:21;9.20;99.90
28947;DHT22;16052;50.930;5.326;2023-02-19T18:19:47;9.30;99.90
28947;DHT22;16052;50.930;5.326;2023-02-19T18:22:14;9.30;99.90
28947;DHT22;16052;50.930;5.326;2023-02-19T18:24:58;9.30;99.90
28947;DHT22;16052;50.930;5.326;2023-02-19T18:27:24;9.30;99.90